createdAt,value
2019-02-18T00:00:01.877Z,23.70
2019-02-18T00:01:01.865Z,22.60
2019-02-18T00:02:01.857Z,22.00
2019-02-18T00:03:01.847Z,22.30
2019-02-18T00:04:01.838Z,22.50
2019-02-18T00:05:01.830Z,21.80
2019-02-18T00:06:01.822Z,21.80
2019-02-18T00:07:01.813Z,21.90
2019-02-18T00:08:01.805Z,21.70
2019-02-18T00:09:01.796Z,22.00
2019-02-18T00:10:01.787Z,22.30
2019-02-18T00:11:01.778Z,22.60
2019-02-18T00:12:01.775Z,22.20
2019-02-18T00:13:01.763Z,22.00
2019-02-18T00:14:01.751Z,22.50
2019-02-18T00:15:01.744Z,22.70
2019-02-18T00:16:01.737Z,21.60
2019-02-18T00:17:01.724Z,22.20
2019-02-18T00:18:01.719Z,22.40
2019-02-18T00:19:01.709Z,22.20
2019-02-18T00:20:01.700Z,22.80
2019-02-18T00:21:01.691Z,22.60
2019-02-18T00:22:01.683Z,22.20
2019-02-18T00:23:01.672Z,22.00
2019-02-18T00:24:01.666Z,22.10
2019-02-18T00:25:01.660Z,21.40
2019-02-18T00:26:01.651Z,21.90
2019-02-18T00:27:01.640Z,22.40
2019-02-18T00:28:01.632Z,22.00
2019-02-18T00:29:01.628Z,23.30
2019-02-18T00:30:01.614Z,23.30
2019-02-18T00:31:01.606Z,23.50
2019-02-18T00:32:01.597Z,23.00
2019-02-18T00:33:01.589Z,23.70
2019-02-18T00:34:01.581Z,23.50
2019-02-18T00:35:01.569Z,22.40
2019-02-18T00:36:01.562Z,23.90
2019-02-18T00:37:01.555Z,24.20
2019-02-18T00:38:01.550Z,23.20
2019-02-18T00:39:01.537Z,22.80
2019-02-18T00:40:01.528Z,23.40
2019-02-18T00:41:01.526Z,22.90
2019-02-18T00:42:01.513Z,22.90
2019-02-18T00:43:01.501Z,22.70
2019-02-18T00:44:01.495Z,23.20
2019-02-18T00:45:01.486Z,22.80
2019-02-18T00:46:01.477Z,22.60
2019-02-18T00:47:01.465Z,23.50
2019-02-18T00:48:01.458Z,22.70
2019-02-18T00:49:01.452Z,23.10
2019-02-18T00:50:01.441Z,22.90
2019-02-18T00:51:01.431Z,23.70
2019-02-18T00:52:01.423Z,23.00
2019-02-18T00:53:03.385Z,23.10
2019-02-18T00:54:01.404Z,23.40
2019-02-18T00:55:01.400Z,23.10
2019-02-18T00:56:01.385Z,23.20
2019-02-18T00:57:01.378Z,22.50
2019-02-18T00:58:01.374Z,22.50
2019-02-18T00:59:01.357Z,23.90
2019-02-18T01:00:01.352Z,23.70
2019-02-18T01:01:01.345Z,23.30
2019-02-18T01:02:01.336Z,23.80
2019-02-18T01:03:01.328Z,23.50
2019-02-18T01:04:01.315Z,24.10
2019-02-18T01:05:01.308Z,23.80
2019-02-18T01:06:01.350Z,23.60
2019-02-18T01:07:01.292Z,23.40
2019-02-18T01:08:01.285Z,22.20
2019-02-18T01:09:01.273Z,22.70
2019-02-18T01:10:01.271Z,22.40
2019-02-18T01:11:01.256Z,22.80
2019-02-18T01:12:01.249Z,23.00
2019-02-18T01:13:01.237Z,22.50
2019-02-18T01:14:01.230Z,22.90
2019-02-18T01:15:01.219Z,21.00
2019-02-18T01:16:01.210Z,22.50
2019-02-18T01:17:01.201Z,22.80
2019-02-18T01:18:01.193Z,23.60
2019-02-18T01:19:01.183Z,22.60
2019-02-18T01:20:01.176Z,22.20
2019-02-18T01:21:01.172Z,22.10
2019-02-18T01:22:01.158Z,22.80
2019-02-18T01:23:01.150Z,23.70
2019-02-18T01:24:01.139Z,22.20
2019-02-18T01:25:01.129Z,21.90
2019-02-18T01:26:01.123Z,21.90
2019-02-18T01:27:01.117Z,22.10
2019-02-18T01:28:01.160Z,22.10
2019-02-18T01:29:01.099Z,22.40
2019-02-18T01:30:01.094Z,22.50
2019-02-18T01:31:01.077Z,21.70
2019-02-18T01:32:01.069Z,21.60
2019-02-18T01:33:01.058Z,21.80
2019-02-18T01:34:01.050Z,21.80
2019-02-18T01:35:01.043Z,22.30
2019-02-18T01:36:01.031Z,22.70
2019-02-18T01:37:01.024Z,21.80
2019-02-18T01:38:01.020Z,21.60
2019-02-18T01:39:01.019Z,21.50
2019-02-18T01:40:01.005Z,22.30
2019-02-18T01:41:00.989Z,22.10
2019-02-18T01:42:00.979Z,22.50
2019-02-18T01:43:00.969Z,22.10
2019-02-18T01:44:00.961Z,21.80
2019-02-18T01:45:00.949Z,20.70
2019-02-18T01:46:00.949Z,21.80
2019-02-18T01:47:00.939Z,22.00
2019-02-18T01:48:00.922Z,21.30
2019-02-18T01:49:00.914Z,22.00
2019-02-18T01:50:00.924Z,22.20
2019-02-18T01:51:00.895Z,21.50
2019-02-18T01:52:00.886Z,21.80
2019-02-18T01:53:00.880Z,21.50
2019-02-18T01:54:00.868Z,21.40
2019-02-18T01:55:00.861Z,21.60
2019-02-18T01:56:00.849Z,21.50
2019-02-18T01:57:00.844Z,22.70
2019-02-18T01:58:00.836Z,21.70
2019-02-18T01:59:00.821Z,22.10
2019-02-18T02:00:00.811Z,22.40
2019-02-18T02:01:00.808Z,23.20
2019-02-18T02:02:00.795Z,22.20
2019-02-18T02:03:00.788Z,22.40
2019-02-18T02:04:00.782Z,22.20
2019-02-18T02:05:00.768Z,23.10
2019-02-18T02:06:00.759Z,22.80
2019-02-18T02:07:00.755Z,22.80
2019-02-18T02:08:00.739Z,22.30
2019-02-18T02:09:00.731Z,22.20
2019-02-18T02:10:00.724Z,21.90
2019-02-18T02:11:00.710Z,21.30
2019-02-18T02:12:00.706Z,22.30
2019-02-18T02:13:00.697Z,22.60
2019-02-18T02:14:00.684Z,22.60
2019-02-18T02:15:00.673Z,22.70
2019-02-18T02:16:00.666Z,22.10
2019-02-18T02:17:00.664Z,22.10
2019-02-18T02:18:00.648Z,22.50
2019-02-18T02:19:00.639Z,22.00
2019-02-18T02:20:00.643Z,22.00
2019-02-18T02:21:00.623Z,22.60
2019-02-18T02:22:00.610Z,22.20
2019-02-18T02:23:00.599Z,21.90
2019-02-18T02:24:00.594Z,22.50
2019-02-18T02:25:00.581Z,23.60
2019-02-18T02:26:00.573Z,22.50
2019-02-18T02:27:00.562Z,22.10
2019-02-18T02:28:00.555Z,23.00
2019-02-18T02:29:00.548Z,23.00
2019-02-18T02:30:00.573Z,23.40
2019-02-18T02:31:01.298Z,23.00
2019-02-18T02:32:00.520Z,23.90
2019-02-18T02:33:00.509Z,23.30
2019-02-18T02:34:00.503Z,23.50
2019-02-18T02:35:00.487Z,24.10
2019-02-18T02:36:00.478Z,23.60
2019-02-18T02:37:00.471Z,22.30
2019-02-18T02:38:07.709Z,22.80
2019-02-18T02:39:00.450Z,22.50
2019-02-18T02:40:00.519Z,22.50
2019-02-18T02:41:00.434Z,23.40
2019-02-18T02:42:00.422Z,22.40
2019-02-18T02:43:00.414Z,23.40
2019-02-18T02:44:00.405Z,22.60
2019-02-18T02:45:00.632Z,24.00
2019-02-18T02:46:00.390Z,23.70
2019-02-18T02:47:00.374Z,23.40
2019-02-18T02:48:00.365Z,23.00
2019-02-18T02:49:00.372Z,22.70
2019-02-18T02:50:00.350Z,22.40
2019-02-18T02:51:00.335Z,22.30
2019-02-18T02:52:00.336Z,23.10
2019-02-18T02:53:00.318Z,24.10
2019-02-18T02:54:00.311Z,23.80
2019-02-18T02:55:00.312Z,22.80
2019-02-18T02:56:00.289Z,24.50
2019-02-18T02:57:00.278Z,25.20
2019-02-18T02:58:00.268Z,22.90
2019-02-18T02:59:00.258Z,23.80
2019-02-18T03:00:00.322Z,23.50
2019-02-18T03:01:00.241Z,23.30
2019-02-18T03:02:00.231Z,24.20
2019-02-18T03:03:00.226Z,22.50
2019-02-18T03:04:00.210Z,23.90
2019-02-18T03:05:00.470Z,24.20
2019-02-18T03:06:00.194Z,24.50
2019-02-18T03:07:00.180Z,23.20
2019-02-18T03:08:00.171Z,23.80
2019-02-18T03:09:00.164Z,24.80
2019-02-18T03:10:00.376Z,23.40
2019-02-18T03:11:00.145Z,23.60
2019-02-18T03:12:00.137Z,23.80
2019-02-18T03:13:00.133Z,23.80
2019-02-18T03:14:00.115Z,23.60
2019-02-18T03:15:00.260Z,23.60
2019-02-18T03:16:00.093Z,24.80
2019-02-18T03:17:00.093Z,23.50
2019-02-18T03:18:00.076Z,24.20
2019-02-18T03:19:00.065Z,22.70
2019-02-18T03:20:00.062Z,23.60
2019-02-18T03:21:00.050Z,22.30
2019-02-18T03:22:00.038Z,24.20
2019-02-18T03:23:00.030Z,23.80
2019-02-18T03:24:00.022Z,24.60
2019-02-18T03:25:00.009Z,23.80
2019-02-18T03:26:00.002Z,24.70
2019-02-18T03:26:59.986Z,25.80
2019-02-18T03:27:59.978Z,23.30
2019-02-18T03:28:59.969Z,23.80
2019-02-18T03:29:59.960Z,24.20
2019-02-18T03:30:59.949Z,24.60
2019-02-18T03:31:59.940Z,25.80
2019-02-18T03:32:59.936Z,24.50
2019-02-18T03:33:59.927Z,26.50
2019-02-18T03:35:00.685Z,27.20
2019-02-18T03:35:59.902Z,26.90
2019-02-18T03:36:59.890Z,26.30
2019-02-18T03:37:59.885Z,26.40
2019-02-18T03:38:59.871Z,25.00
2019-02-18T03:39:59.861Z,24.40
2019-02-18T03:41:03.172Z,24.90
2019-02-18T03:41:59.842Z,24.10
2019-02-18T03:42:59.832Z,23.20
2019-02-18T03:43:59.822Z,23.30
2019-02-18T03:44:59.813Z,25.60
2019-02-18T03:45:59.811Z,23.60
2019-02-18T03:46:59.791Z,24.10
2019-02-18T03:47:59.783Z,23.50
2019-02-18T03:48:59.774Z,24.30
2019-02-18T03:49:59.764Z,23.90
2019-02-18T03:50:59.753Z,24.90
2019-02-18T03:51:59.743Z,25.60
2019-02-18T03:52:59.730Z,25.20
2019-02-18T03:53:59.732Z,25.70
2019-02-18T03:54:59.726Z,23.50
2019-02-18T03:55:59.718Z,24.40
2019-02-18T03:56:59.700Z,26.10
2019-02-18T03:57:59.681Z,25.20
2019-02-18T03:58:59.672Z,25.00
2019-02-18T03:59:59.664Z,24.10
2019-02-18T04:00:59.654Z,23.60
2019-02-18T04:01:59.643Z,23.30
2019-02-18T04:02:59.632Z,23.10
2019-02-18T04:03:59.623Z,23.80
2019-02-18T04:04:59.611Z,23.70
2019-02-18T04:05:59.601Z,24.10
2019-02-18T04:06:59.591Z,25.80
2019-02-18T04:07:59.582Z,26.50
2019-02-18T04:08:59.572Z,26.30
2019-02-18T04:09:59.562Z,24.60
2019-02-18T04:10:59.551Z,26.80
2019-02-18T04:11:59.541Z,24.30
2019-02-18T04:12:59.536Z,22.70
2019-02-18T04:13:59.522Z,24.90
2019-02-18T04:14:59.512Z,25.50
2019-02-18T04:15:59.505Z,24.80
2019-02-18T04:16:59.491Z,26.40
2019-02-18T04:17:59.491Z,23.80
2019-02-18T04:18:59.481Z,25.10
2019-02-18T04:19:59.464Z,24.30
2019-02-18T04:20:59.449Z,23.20
2019-02-18T04:21:59.441Z,24.60
2019-02-18T04:22:59.432Z,22.90
2019-02-18T04:23:59.419Z,26.30
2019-02-18T04:24:59.409Z,24.20
2019-02-18T04:25:59.399Z,24.50
2019-02-18T04:26:59.388Z,24.50
2019-02-18T04:27:59.377Z,26.20
2019-02-18T04:28:59.369Z,26.00
2019-02-18T04:29:59.356Z,26.70
2019-02-18T04:30:59.347Z,25.00
2019-02-18T04:31:59.338Z,25.70
2019-02-18T04:32:59.329Z,27.00
2019-02-18T04:33:59.318Z,24.60
2019-02-18T04:34:59.313Z,25.10
2019-02-18T04:35:59.303Z,24.30
2019-02-18T04:36:59.291Z,23.90
2019-02-18T04:37:59.276Z,25.20
2019-02-18T04:38:59.266Z,26.30
2019-02-18T04:39:59.255Z,26.70
2019-02-18T04:40:59.251Z,25.20
2019-02-18T04:41:59.236Z,24.30
2019-02-18T04:42:59.225Z,24.40
2019-02-18T04:43:59.219Z,24.50
2019-02-18T04:44:59.207Z,25.20
2019-02-18T04:45:59.197Z,24.40
2019-02-18T04:46:59.190Z,24.60
2019-02-18T04:47:59.179Z,23.10
2019-02-18T04:48:59.167Z,23.20
2019-02-18T04:49:59.156Z,25.70
2019-02-18T04:50:59.144Z,24.80
2019-02-18T04:51:59.133Z,25.00
2019-02-18T04:52:59.123Z,25.20
2019-02-18T04:53:59.115Z,25.80
2019-02-18T04:54:59.101Z,26.30
2019-02-18T04:55:59.146Z,25.30
2019-02-18T04:56:59.083Z,24.70
2019-02-18T04:57:59.071Z,26.00
2019-02-18T04:58:59.062Z,25.20
2019-02-18T04:59:59.050Z,24.50
2019-02-18T05:00:59.041Z,23.70
2019-02-18T05:01:59.031Z,24.70
2019-02-18T05:02:59.019Z,24.90
2019-02-18T05:03:59.010Z,24.50
2019-02-18T05:04:59.003Z,25.50
2019-02-18T05:05:58.998Z,25.60
2019-02-18T05:06:58.980Z,25.20
2019-02-18T05:07:58.966Z,25.00
2019-02-18T05:09:05.223Z,23.80
2019-02-18T05:09:58.947Z,24.70
2019-02-18T05:10:58.938Z,24.40
2019-02-18T05:11:58.928Z,24.80
2019-02-18T05:12:58.918Z,23.30
2019-02-18T05:13:58.907Z,24.20
2019-02-18T05:14:58.899Z,24.10
2019-02-18T05:15:58.888Z,23.80
2019-02-18T05:16:58.875Z,25.30
2019-02-18T05:17:58.870Z,24.70
2019-02-18T05:18:58.857Z,25.90
2019-02-18T05:19:58.847Z,25.60
2019-02-18T05:20:58.839Z,26.10
2019-02-18T05:21:58.823Z,26.10
2019-02-18T05:22:58.815Z,24.50
2019-02-18T05:23:58.805Z,23.80
2019-02-18T05:24:58.791Z,25.00
2019-02-18T05:25:58.785Z,24.70
2019-02-18T05:26:58.771Z,23.30
2019-02-18T05:27:58.772Z,22.60
2019-02-18T05:28:58.758Z,23.80
2019-02-18T05:29:58.743Z,24.20
2019-02-18T05:30:58.731Z,23.70
2019-02-18T05:31:58.720Z,24.00
2019-02-18T05:32:58.720Z,23.90
2019-02-18T05:33:58.701Z,25.40
2019-02-18T05:34:58.693Z,23.90
2019-02-18T05:35:58.682Z,24.60
2019-02-18T05:36:58.668Z,24.40
2019-02-18T05:37:58.663Z,25.20
2019-02-18T05:38:58.659Z,26.30
2019-02-18T05:39:58.678Z,24.70
2019-02-18T05:40:58.634Z,23.90
2019-02-18T05:41:58.618Z,24.50
2019-02-18T05:42:58.605Z,25.10
2019-02-18T05:43:58.597Z,24.70
2019-02-18T05:44:58.588Z,25.80
2019-02-18T05:45:58.583Z,25.70
2019-02-18T05:46:58.565Z,25.10
2019-02-18T05:47:58.553Z,25.40
2019-02-18T05:48:58.547Z,25.20
2019-02-18T05:49:58.533Z,23.40
2019-02-18T05:50:58.522Z,25.40
2019-02-18T05:51:58.524Z,27.40
2019-02-18T05:52:58.505Z,26.60
2019-02-18T05:53:58.499Z,25.20
2019-02-18T05:54:58.484Z,25.40
2019-02-18T05:55:58.472Z,24.40
2019-02-18T05:56:58.460Z,25.30
2019-02-18T05:57:58.452Z,25.60
2019-02-18T05:58:58.440Z,26.00
2019-02-18T05:59:58.431Z,26.40
2019-02-18T06:00:58.419Z,25.10
2019-02-18T06:01:58.410Z,25.00
2019-02-18T06:02:58.400Z,25.40
2019-02-18T06:04:00.167Z,25.00
2019-02-18T06:04:58.390Z,25.80
2019-02-18T06:05:58.365Z,25.90
2019-02-18T06:06:58.355Z,25.90
2019-02-18T06:07:58.346Z,24.80
2019-02-18T06:08:58.341Z,24.10
2019-02-18T06:09:58.324Z,24.80
2019-02-18T06:10:58.314Z,24.90
2019-02-18T06:11:58.305Z,23.90
2019-02-18T06:12:58.290Z,24.90
2019-02-18T06:13:58.282Z,23.40
2019-02-18T06:14:58.273Z,27.00
2019-02-18T06:15:58.264Z,28.40
2019-02-18T06:16:58.252Z,26.20
2019-02-18T06:17:58.244Z,27.00
2019-02-18T06:18:58.233Z,25.50
2019-02-18T06:19:58.217Z,25.20
2019-02-18T06:20:58.209Z,25.30
2019-02-18T06:21:58.200Z,25.90
2019-02-18T06:22:58.187Z,25.70
2019-02-18T06:23:58.183Z,24.40
2019-02-18T06:24:58.164Z,25.60
2019-02-18T06:25:58.165Z,25.10
2019-02-18T06:26:58.141Z,25.60
2019-02-18T06:27:58.135Z,25.30
2019-02-18T06:28:58.126Z,27.10
2019-02-18T06:29:58.111Z,25.30
2019-02-18T06:30:58.105Z,26.70
2019-02-18T06:31:58.097Z,26.90
2019-02-18T06:32:58.081Z,26.70
2019-02-18T06:33:58.074Z,26.60
2019-02-18T06:34:58.064Z,26.90
2019-02-18T06:35:58.050Z,26.00
2019-02-18T06:36:58.038Z,27.00
2019-02-18T06:37:58.033Z,26.60
2019-02-18T06:38:58.018Z,26.10
2019-02-18T06:39:58.016Z,25.60
2019-02-18T06:40:58.001Z,24.70
2019-02-18T06:41:57.987Z,25.10
2019-02-18T06:42:57.974Z,24.40
2019-02-18T06:43:57.967Z,24.30
2019-02-18T06:44:57.954Z,25.00
2019-02-18T06:45:57.946Z,26.10
2019-02-18T06:46:57.936Z,26.90
2019-02-18T06:47:57.925Z,25.30
2019-02-18T06:48:57.916Z,26.00
2019-02-18T06:49:57.904Z,25.10
2019-02-18T06:50:57.890Z,24.00
2019-02-18T06:51:57.887Z,25.00
2019-02-18T06:52:57.874Z,24.70
2019-02-18T06:53:57.858Z,26.20
2019-02-18T06:54:57.856Z,27.30
2019-02-18T06:55:57.844Z,26.70
2019-02-18T06:56:57.835Z,26.00
2019-02-18T06:57:57.818Z,27.60
2019-02-18T06:58:57.811Z,25.90
2019-02-18T06:59:57.797Z,27.20
2019-02-18T07:00:57.787Z,27.40
2019-02-18T07:01:57.777Z,27.10
2019-02-18T07:02:57.763Z,25.60
2019-02-18T07:03:57.755Z,27.50
2019-02-18T07:04:57.743Z,26.40
2019-02-18T07:05:57.736Z,26.50
2019-02-18T07:06:57.726Z,26.00
2019-02-18T07:07:57.714Z,26.10
2019-02-18T07:08:57.707Z,24.40
2019-02-18T07:09:57.694Z,24.00
2019-02-18T07:10:57.684Z,24.40
2019-02-18T07:11:57.674Z,24.40
2019-02-18T07:12:57.661Z,24.50
2019-02-18T07:13:57.652Z,26.10
2019-02-18T07:14:57.658Z,25.30
2019-02-18T07:15:57.631Z,25.10
2019-02-18T07:16:57.619Z,25.60
2019-02-18T07:17:57.606Z,24.50
2019-02-18T07:18:57.599Z,26.70
2019-02-18T07:19:57.591Z,25.10
2019-02-18T07:20:57.583Z,24.20
2019-02-18T07:21:57.568Z,24.60
2019-02-18T07:22:57.558Z,25.00
2019-02-18T07:23:57.554Z,24.00
2019-02-18T07:24:57.537Z,24.70
2019-02-18T07:25:57.527Z,24.20
2019-02-18T07:26:57.519Z,24.10
2019-02-18T07:27:57.505Z,24.60
2019-02-18T07:28:57.501Z,24.50
2019-02-18T07:29:57.487Z,24.80
2019-02-18T07:30:57.473Z,23.90
2019-02-18T07:31:57.466Z,24.40
2019-02-18T07:32:57.452Z,24.90
2019-02-18T07:33:57.448Z,25.70
2019-02-18T07:34:57.433Z,25.10
2019-02-18T07:35:57.420Z,24.50
2019-02-18T07:36:57.415Z,24.00
2019-02-18T07:37:57.404Z,23.80
2019-02-18T07:38:57.395Z,24.70
2019-02-18T07:40:01.593Z,24.20
2019-02-18T07:40:57.378Z,24.30
2019-02-18T07:41:57.363Z,23.10
2019-02-18T07:42:57.357Z,23.80
2019-02-18T07:43:57.342Z,22.80
2019-02-18T07:44:57.331Z,22.60
2019-02-18T07:45:57.325Z,22.10
2019-02-18T07:46:57.312Z,22.00
2019-02-18T07:47:57.307Z,21.70
2019-02-18T07:48:57.295Z,22.60
2019-02-18T07:49:57.284Z,22.60
2019-02-18T07:50:57.272Z,22.20
2019-02-18T07:51:57.267Z,22.20
2019-02-18T07:52:57.255Z,21.40
2019-02-18T07:53:57.242Z,21.00
2019-02-18T07:54:57.231Z,21.30
2019-02-18T07:55:57.225Z,22.20
2019-02-18T07:56:57.214Z,21.80
2019-02-18T07:57:57.206Z,20.90
2019-02-18T07:58:57.195Z,20.80
2019-02-18T07:59:57.184Z,20.50
2019-02-18T08:00:57.174Z,21.30
2019-02-18T08:01:57.176Z,21.30
2019-02-18T08:02:57.155Z,21.10
2019-02-18T08:03:57.149Z,20.90
2019-02-18T08:04:57.140Z,20.70
2019-02-18T08:05:57.130Z,20.50
2019-02-18T08:06:57.118Z,20.70
2019-02-18T08:07:57.110Z,20.80
2019-02-18T08:08:57.099Z,21.00
2019-02-18T08:09:57.091Z,21.10
2019-02-18T08:10:57.081Z,20.80
2019-02-18T08:11:57.071Z,20.20
2019-02-18T08:12:57.059Z,20.00
2019-02-18T08:13:57.051Z,20.40
2019-02-18T08:14:57.051Z,20.90
2019-02-18T08:15:57.033Z,20.50
2019-02-18T08:16:57.022Z,20.40
2019-02-18T08:17:57.014Z,19.70
2019-02-18T08:18:57.003Z,19.50
2019-02-18T08:19:56.994Z,19.10
2019-02-18T08:20:56.986Z,17.80
2019-02-18T08:21:56.977Z,18.40
2019-02-18T08:22:56.966Z,18.60
2019-02-18T08:23:59.987Z,18.00
2019-02-18T08:24:56.950Z,18.10
2019-02-18T08:25:56.938Z,18.20
2019-02-18T08:26:56.928Z,18.70
2019-02-18T08:27:56.923Z,18.30
2019-02-18T08:28:56.912Z,18.20
2019-02-18T08:29:56.903Z,18.00
2019-02-18T08:30:56.895Z,17.70
2019-02-18T08:31:56.883Z,17.90
2019-02-18T08:32:56.926Z,18.30
2019-02-18T08:33:56.867Z,18.10
2019-02-18T08:34:56.856Z,18.40
2019-02-18T08:35:56.850Z,17.90
2019-02-18T08:36:56.841Z,18.20
2019-02-18T08:37:56.831Z,17.80
2019-02-18T08:38:56.819Z,18.30
2019-02-18T08:39:56.815Z,18.00
2019-02-18T08:40:56.802Z,17.80
2019-02-18T08:41:56.798Z,17.20
2019-02-18T08:42:56.785Z,17.90
2019-02-18T08:43:56.776Z,17.80
2019-02-18T08:44:56.771Z,18.10
2019-02-18T08:45:56.760Z,17.70
2019-02-18T08:46:56.749Z,18.20
2019-02-18T08:47:56.743Z,17.80
2019-02-18T08:48:56.732Z,16.50
2019-02-18T08:49:56.723Z,16.90
2019-02-18T08:50:56.717Z,17.10
2019-02-18T08:51:56.709Z,17.30
2019-02-18T08:52:56.698Z,16.80
2019-02-18T08:53:56.690Z,17.20
2019-02-18T08:54:57.025Z,17.30
2019-02-18T08:55:56.672Z,17.90
2019-02-18T08:56:56.661Z,17.30
2019-02-18T08:57:56.660Z,17.40
2019-02-18T08:58:56.647Z,16.70
2019-02-18T08:59:56.636Z,16.90
2019-02-18T09:01:02.579Z,16.80
2019-02-18T09:01:56.621Z,17.30
2019-02-18T09:02:56.623Z,16.70
2019-02-18T09:03:56.603Z,16.20
2019-02-18T09:04:56.594Z,15.90
2019-02-18T09:05:56.588Z,15.70
2019-02-18T09:06:56.582Z,16.10
2019-02-18T09:07:56.570Z,16.80
2019-02-18T09:08:56.564Z,16.60
2019-02-18T09:09:56.553Z,16.10
2019-02-18T09:10:56.547Z,16.60
2019-02-18T09:11:56.536Z,15.70
2019-02-18T09:12:56.530Z,15.60
2019-02-18T09:13:56.524Z,16.00
2019-02-18T09:14:56.513Z,15.30
2019-02-18T09:16:00.009Z,15.60
2019-02-18T09:16:56.496Z,15.30
2019-02-18T09:17:56.488Z,15.30
2019-02-18T09:18:56.485Z,15.80
2019-02-18T09:19:56.475Z,15.90
2019-02-18T09:20:56.466Z,15.10
2019-02-18T09:21:56.455Z,15.40
2019-02-18T09:22:56.453Z,15.60
2019-02-18T09:23:56.445Z,15.20
2019-02-18T09:24:56.430Z,15.40
2019-02-18T09:25:56.425Z,15.10
2019-02-18T09:26:56.419Z,14.90
2019-02-18T09:27:56.409Z,15.70
2019-02-18T09:28:56.399Z,15.10
2019-02-18T09:29:56.392Z,14.80
2019-02-18T09:30:56.463Z,14.60
2019-02-18T09:31:56.376Z,14.50
2019-02-18T09:32:56.367Z,14.70
2019-02-18T09:33:56.674Z,15.20
2019-02-18T09:35:02.059Z,14.90
2019-02-18T09:35:56.346Z,14.80
2019-02-18T09:36:56.346Z,14.60
2019-02-18T09:37:56.329Z,14.80
2019-02-18T09:38:56.420Z,14.90
2019-02-18T09:39:56.318Z,15.20
2019-02-18T09:40:56.313Z,15.20
2019-02-18T09:41:56.302Z,15.40
2019-02-18T09:42:56.292Z,15.90
2019-02-18T09:43:56.292Z,15.30
2019-02-18T09:44:56.279Z,16.00
2019-02-18T09:45:56.268Z,15.60
2019-02-18T09:46:56.261Z,16.40
2019-02-18T09:47:56.254Z,16.40
2019-02-18T09:48:56.251Z,15.90
2019-02-18T09:49:56.239Z,15.70
2019-02-18T09:50:56.235Z,15.00
2019-02-18T09:51:56.224Z,14.50
2019-02-18T09:52:56.219Z,14.60
2019-02-18T09:53:56.209Z,14.40
2019-02-18T09:54:56.203Z,13.70
2019-02-18T09:55:56.195Z,14.40
2019-02-18T09:56:56.190Z,13.80
2019-02-18T09:57:56.180Z,14.00
2019-02-18T09:58:56.172Z,13.50
2019-02-18T09:59:56.249Z,14.40
2019-02-18T10:00:56.159Z,14.00
2019-02-18T10:01:56.151Z,14.00
2019-02-18T10:02:56.144Z,13.60
2019-02-18T10:03:56.140Z,13.30
2019-02-18T10:04:56.129Z,12.90
2019-02-18T10:05:56.125Z,13.70
2019-02-18T10:06:56.115Z,13.30
2019-02-18T10:07:56.116Z,12.90
2019-02-18T10:08:56.100Z,13.40
2019-02-18T10:09:56.095Z,12.90
2019-02-18T10:10:56.491Z,12.50
2019-02-18T10:11:56.089Z,13.00
2019-02-18T10:12:56.075Z,12.70
2019-02-18T10:13:56.070Z,13.20
2019-02-18T10:14:56.062Z,13.20
2019-02-18T10:15:56.058Z,12.70
2019-02-18T10:16:56.049Z,13.70
2019-02-18T10:17:56.041Z,12.70
2019-02-18T10:18:56.037Z,12.60
2019-02-18T10:19:56.033Z,13.00
2019-02-18T10:20:56.022Z,12.60
2019-02-18T10:21:56.015Z,12.70
2019-02-18T10:22:56.004Z,12.30
2019-02-18T10:23:55.998Z,13.10
2019-02-18T10:24:55.997Z,12.40
2019-02-18T10:25:55.988Z,13.00
2019-02-18T10:26:55.980Z,12.20
2019-02-18T10:27:55.972Z,13.00
2019-02-18T10:28:55.965Z,12.70
2019-02-18T10:29:55.963Z,12.50
2019-02-18T10:30:55.951Z,12.90
2019-02-18T10:31:55.950Z,12.90
2019-02-18T10:32:55.951Z,12.30
2019-02-18T10:33:55.936Z,12.90
2019-02-18T10:34:55.928Z,12.10
2019-02-18T10:35:55.920Z,12.50
2019-02-18T10:36:55.918Z,13.10
2019-02-18T10:37:55.914Z,12.60
2019-02-18T10:38:55.900Z,12.60
2019-02-18T10:39:55.896Z,12.30
2019-02-18T10:41:06.149Z,12.20
2019-02-18T10:41:55.884Z,12.80
2019-02-18T10:42:55.877Z,12.50
2019-02-18T10:43:55.874Z,12.90
2019-02-18T10:44:55.865Z,13.00
2019-02-18T10:45:55.854Z,12.10
2019-02-18T10:46:55.850Z,12.50
2019-02-18T10:47:55.848Z,12.10
2019-02-18T10:48:55.882Z,12.50
2019-02-18T10:49:55.832Z,12.30
2019-02-18T10:50:55.828Z,12.30
2019-02-18T10:51:55.823Z,12.40
2019-02-18T10:52:55.814Z,12.10
2019-02-18T10:53:55.811Z,12.40
2019-02-18T10:54:55.854Z,12.20
2019-02-18T10:55:55.799Z,12.30
2019-02-18T10:56:55.791Z,11.90
2019-02-18T10:57:55.787Z,12.50
2019-02-18T10:58:55.786Z,12.20
2019-02-18T10:59:55.776Z,12.30
2019-02-18T11:00:55.768Z,12.00
2019-02-18T11:01:55.762Z,12.40
2019-02-18T11:02:55.757Z,12.30
2019-02-18T11:03:55.749Z,12.40
2019-02-18T11:04:55.746Z,12.00
2019-02-18T11:05:55.737Z,11.80
2019-02-18T11:06:55.725Z,11.90
2019-02-18T11:07:55.744Z,12.00
2019-02-18T11:08:55.723Z,12.00
2019-02-18T11:09:55.716Z,11.90
2019-02-18T11:10:55.709Z,12.50
2019-02-18T11:11:55.703Z,12.40
2019-02-18T11:12:55.716Z,12.30
2019-02-18T11:13:55.693Z,12.10
2019-02-18T11:14:55.739Z,12.50
2019-02-18T11:15:55.682Z,12.10
2019-02-18T11:16:55.701Z,12.20
2019-02-18T11:17:55.671Z,12.40
2019-02-18T11:18:55.747Z,12.10
2019-02-18T11:19:55.656Z,12.60
2019-02-18T11:20:55.653Z,12.50
2019-02-18T11:21:55.651Z,12.20
2019-02-18T11:22:55.650Z,12.60
2019-02-18T11:23:55.636Z,12.50
2019-02-18T11:24:55.634Z,13.10
2019-02-18T11:25:55.626Z,12.50
2019-02-18T11:26:55.647Z,12.70
2019-02-18T11:27:55.615Z,12.60
2019-02-18T11:28:55.610Z,12.40
2019-02-18T11:29:55.607Z,12.10
2019-02-18T11:30:55.597Z,12.60
2019-02-18T11:31:55.595Z,12.60
2019-02-18T11:32:55.589Z,12.50
2019-02-18T11:33:55.584Z,12.80
2019-02-18T11:34:55.580Z,12.30
2019-02-18T11:35:55.572Z,12.30
2019-02-18T11:36:55.607Z,12.60
2019-02-18T11:37:55.563Z,12.80
2019-02-18T11:38:55.561Z,12.80
2019-02-18T11:39:55.555Z,12.80
2019-02-18T11:40:55.556Z,12.90
2019-02-18T11:41:55.552Z,12.60
2019-02-18T11:42:55.535Z,12.80
2019-02-18T11:43:55.530Z,12.60
2019-02-18T11:44:55.526Z,12.50
2019-02-18T11:45:55.521Z,13.30
2019-02-18T11:46:55.515Z,12.80
2019-02-18T11:47:55.512Z,13.40
2019-02-18T11:48:55.508Z,13.00
2019-02-18T11:49:55.501Z,13.30
2019-02-18T11:50:55.511Z,13.30
2019-02-18T11:51:55.492Z,13.60
2019-02-18T11:52:55.485Z,13.20
2019-02-18T11:53:55.483Z,13.20
2019-02-18T11:54:55.475Z,13.60
2019-02-18T11:55:55.470Z,13.10
2019-02-18T11:56:55.495Z,13.70
2019-02-18T11:57:55.463Z,14.00
2019-02-18T11:58:55.457Z,13.60
2019-02-18T11:59:55.451Z,14.30
2019-02-18T12:00:55.464Z,14.00
2019-02-18T12:01:55.443Z,13.40
2019-02-18T12:03:02.724Z,13.50
2019-02-18T12:03:55.430Z,13.40
2019-02-18T12:04:55.426Z,13.60
2019-02-18T12:05:55.422Z,13.70
2019-02-18T12:06:55.418Z,13.70
2019-02-18T12:07:55.416Z,14.00
2019-02-18T12:08:55.411Z,13.60
2019-02-18T12:09:55.403Z,13.90
2019-02-18T12:10:55.404Z,14.30
2019-02-18T12:11:55.395Z,14.30
2019-02-18T12:12:55.994Z,14.10
2019-02-18T12:13:55.385Z,14.20
2019-02-18T12:14:55.381Z,14.90
2019-02-18T12:15:55.379Z,14.90
2019-02-18T12:16:55.375Z,14.60
2019-02-18T12:17:55.366Z,14.20
2019-02-18T12:18:55.362Z,14.20
2019-02-18T12:19:55.362Z,14.90
2019-02-18T12:20:55.357Z,14.70
2019-02-18T12:21:55.350Z,14.60
2019-02-18T12:22:55.343Z,13.70
2019-02-18T12:23:55.344Z,15.00
2019-02-18T12:24:55.335Z,14.00
2019-02-18T12:25:55.332Z,14.10
2019-02-18T12:26:55.327Z,13.80
2019-02-18T12:27:55.324Z,13.70
2019-02-18T12:28:55.321Z,14.10
2019-02-18T12:29:55.322Z,14.30
2019-02-18T12:30:55.311Z,14.10
2019-02-18T12:31:55.306Z,13.80
2019-02-18T12:32:55.303Z,14.70
2019-02-18T12:33:55.299Z,13.70
2019-02-18T12:34:55.296Z,13.40
2019-02-18T12:35:55.292Z,13.70
2019-02-18T12:36:55.285Z,13.60
2019-02-18T12:37:55.787Z,13.70
2019-02-18T12:38:55.278Z,14.20
2019-02-18T12:39:55.270Z,14.30
2019-02-18T12:40:55.271Z,14.00
2019-02-18T12:41:55.269Z,13.90
2019-02-18T12:42:55.261Z,14.30
2019-02-18T12:43:55.258Z,14.50
2019-02-18T12:44:55.255Z,14.10
2019-02-18T12:45:55.251Z,14.10
2019-02-18T12:46:55.245Z,14.70
2019-02-18T12:47:55.239Z,14.10
2019-02-18T12:48:55.237Z,14.40
2019-02-18T12:49:55.234Z,13.90
2019-02-18T12:50:55.229Z,14.00
2019-02-18T12:51:55.225Z,13.90